Time;durP1;ratioP1;P1;durP2;ratioP2;P2;SDS_P1;SDS_P2;PMS_P1;PMS_P2;Temp;Humidity;BMP_temperature;BMP_pressure;BME280_temperature;BME280_humidity;BME280_pressure;Samples;Min_cycle;Max_cycle;Signal;HPM_P1;HPM_P2
2023/08/19 00:01:44;;;;;;;23.65;19.35;;;20.70;99.90;;;;;;4987409;28;20041;-74
2023/08/19 00:04:10;;;;;;;24.30;18.88;;;20.60;99.90;;;;;;5001131;28;20060;-74
2023/08/19 00:06:39;;;;;;;22.75;19.15;;;20.60;99.90;;;;;;5016138;28;20479;-74
2023/08/19 00:09:07;;;;;;;29.42;19.60;;;20.60;99.90;;;;;;4989520;28;20092;-74
2023/08/19 00:11:33;;;;;;;24.80;20.33;;;20.50;99.90;;;;;;4988407;28;20038;-74
2023/08/19 00:13:59;;;;;;;25.13;20.85;;;20.50;99.90;;;;;;4994035;28;20567;-74
2023/08/19 00:16:25;;;;;;;22.65;18.95;;;20.50;99.90;;;;;;5010990;28;20103;-74
2023/08/19 00:18:51;;;;;;;22.85;19.45;;;20.50;99.90;;;;;;5025485;28;20046;-75
2023/08/19 00:21:17;;;;;;;21.00;18.77;;;20.50;99.90;;;;;;5047928;28;20053;-74
2023/08/19 00:23:42;;;;;;;22.67;18.52;;;20.50;99.90;;;;;;5010898;28;20129;-75
2023/08/19 00:26:11;;;;;;;23.35;18.30;;;20.40;99.90;;;;;;4984573;28;20038;-74
2023/08/19 00:28:37;;;;;;;24.60;20.25;;;20.40;99.90;;;;;;4988615;28;20103;-74
2023/08/19 00:31:03;;;;;;;25.13;20.92;;;20.50;99.90;;;;;;4989331;28;20034;-74
2023/08/19 00:33:29;;;;;;;25.77;20.23;;;20.50;99.90;;;;;;4973587;28;20045;-74
2023/08/19 00:35:54;;;;;;;23.42;19.00;;;20.50;99.90;;;;;;4963637;28;20058;-74
2023/08/19 00:38:20;;;;;;;23.10;18.63;;;20.50;99.90;;;;;;4998073;28;20050;-74
2023/08/19 00:40:46;;;;;;;24.73;18.80;;;20.50;99.90;;;;;;5004171;28;20048;-74
2023/08/19 00:43:12;;;;;;;23.05;18.35;;;20.40;99.90;;;;;;5000300;28;20407;-74
2023/08/19 00:45:42;;;;;;;22.52;19.42;;;20.50;99.90;;;;;;5020398;28;20042;-74
2023/08/19 00:48:08;;;;;;;25.83;19.35;;;20.50;99.90;;;;;;4991711;28;20042;-74
2023/08/19 00:50:35;;;;;;;24.48;19.38;;;20.50;99.90;;;;;;4970977;28;20049;-74
2023/08/19 00:53:01;;;;;;;27.27;20.42;;;20.40;99.90;;;;;;5016247;28;20380;-74
2023/08/19 00:55:27;;;;;;;26.25;19.63;;;20.40;99.90;;;;;;5008186;28;20042;-74
2023/08/19 00:57:53;;;;;;;26.95;21.33;;;20.40;99.90;;;;;;5008733;28;20092;-74
2023/08/19 01:00:22;;;;;;;27.77;20.90;;;20.40;99.90;;;;;;4999647;28;20336;-74
2023/08/19 01:02:48;;;;;;;24.00;20.50;;;20.40;99.90;;;;;;5020732;28;20030;-75
2023/08/19 01:05:14;;;;;;;24.67;20.23;;;20.40;99.90;;;;;;4991947;28;20069;-74
2023/08/19 01:07:50;;;;;;;25.52;19.90;;;20.40;99.90;;;;;;5023957;28;20528;-74
2023/08/19 01:11:06;;;;;;;28.35;20.75;;;20.40;99.90;;;;;;5002033;28;20034;-74
2023/08/19 01:13:41;;;;;;;25.50;20.33;;;20.40;99.90;;;;;;4989282;28;20093;-74
2023/08/19 01:16:24;;;;;;;25.35;19.45;;;20.40;99.90;;;;;;4988306;28;20563;-74
2023/08/19 01:18:52;;;;;;;26.02;20.55;;;20.40;99.90;;;;;;4989916;28;20083;-74
2023/08/19 01:21:17;;;;;;;24.25;20.27;;;20.40;99.90;;;;;;4990510;28;20165;-74
2023/08/19 01:23:47;;;;;;;26.10;20.60;;;20.40;99.90;;;;;;5005029;28;20529;-74
2023/08/19 01:26:13;;;;;;;23.60;18.75;;;20.40;99.90;;;;;;4983358;28;20100;-74
2023/08/19 01:28:39;;;;;;;23.63;19.58;;;20.40;99.90;;;;;;4990756;28;20038;-74
2023/08/19 01:31:04;;;;;;;25.80;19.05;;;20.40;99.90;;;;;;4989453;28;20038;-74
2023/08/19 01:33:31;;;;;;;23.88;20.42;;;20.40;99.90;;;;;;4996483;28;20113;-74
2023/08/19 01:36:13;;;;;;;24.98;20.35;;;20.40;99.90;;;;;;5007221;28;20065;-74
2023/08/19 01:38:56;;;;;;;24.08;19.77;;;20.40;99.90;;;;;;5021783;28;20042;-73
2023/08/19 01:41:23;;;;;;;26.00;19.90;;;20.40;99.90;;;;;;5000327;28;20042;-74
2023/08/19 01:43:49;;;;;;;24.23;18.30;;;20.40;99.90;;;;;;5008328;28;20041;-74
2023/08/19 01:46:15;;;;;;;31.55;20.63;;;20.40;99.90;;;;;;5017311;28;20058;-74
2023/08/19 01:48:41;;;;;;;25.45;19.23;;;20.40;99.90;;;;;;5000428;28;20495;-73
2023/08/19 01:51:07;;;;;;;23.92;18.67;;;20.40;99.90;;;;;;4990890;28;20027;-74
2023/08/19 01:53:32;;;;;;;24.73;19.77;;;20.30;99.90;;;;;;4990061;28;20172;-73
2023/08/19 01:55:58;;;;;;;28.33;19.60;;;20.30;99.90;;;;;;4990781;28;20042;-73
2023/08/19 01:58:24;;;;;;;25.95;18.83;;;20.30;99.90;;;;;;5012656;28;20049;-73
2023/08/19 02:00:50;;;;;;;24.73;19.88;;;20.30;99.90;;;;;;5024222;28;20140;-73
2023/08/19 02:03:16;;;;;;;30.08;20.42;;;20.20;99.90;;;;;;4989140;28;20034;-73
2023/08/19 02:05:41;;;;;;;25.73;20.35;;;20.30;99.90;;;;;;4995151;28;20042;-73
2023/08/19 02:08:07;;;;;;;24.67;19.40;;;20.30;99.90;;;;;;5011886;28;20044;-73
2023/08/19 02:10:33;;;;;;;27.45;20.42;;;20.30;99.90;;;;;;4992931;28;20033;-74
2023/08/19 02:12:58;;;;;;;26.15;19.70;;;20.30;99.90;;;;;;4999453;28;20399;-73
2023/08/19 02:15:24;;;;;;;22.50;19.23;;;20.30;99.90;;;;;;5004955;28;20045;-73
2023/08/19 02:17:50;;;;;;;24.23;19.30;;;20.20;99.90;;;;;;4995285;28;20531;-74
2023/08/19 02:20:15;;;;;;;26.95;20.88;;;20.30;99.90;;;;;;5033842;28;20052;-74
2023/08/19 02:22:41;;;;;;;23.17;19.60;;;20.30;99.90;;;;;;4991316;28;20235;-74
2023/08/19 02:25:07;;;;;;;26.25;19.67;;;20.30;99.90;;;;;;4997273;28;20085;-74
2023/08/19 02:27:33;;;;;;;26.45;21.20;;;20.30;99.90;;;;;;4998049;28;20045;-74
2023/08/19 02:29:59;;;;;;;23.48;19.80;;;20.30;99.90;;;;;;4985447;28;20038;-74
2023/08/19 02:32:26;;;;;;;25.80;20.42;;;20.30;99.90;;;;;;5023188;28;20135;-74
2023/08/19 02:34:52;;;;;;;26.00;20.05;;;20.30;99.90;;;;;;4998946;28;20065;-74
2023/08/19 02:37:17;;;;;;;25.75;20.27;;;20.30;99.90;;;;;;4999871;28;20143;-74
2023/08/19 02:39:43;;;;;;;27.60;19.10;;;20.30;99.90;;;;;;5007014;28;20483;-73
2023/08/19 02:42:11;;;;;;;23.42;19.20;;;20.30;99.90;;;;;;4989978;28;20050;-74
2023/08/19 02:44:37;;;;;;;28.35;21.35;;;20.20;99.90;;;;;;5002333;28;20038;-74
2023/08/19 02:47:03;;;;;;;24.25;18.90;;;20.30;99.90;;;;;;5006958;28;20041;-73
2023/08/19 02:49:28;;;;;;;22.63;18.23;;;20.30;99.90;;;;;;4990612;28;20418;-74
2023/08/19 02:51:54;;;;;;;24.30;18.23;;;20.30;99.90;;;;;;5015075;28;20041;-74
2023/08/19 02:54:20;;;;;;;24.58;18.60;;;20.20;99.90;;;;;;4979757;28;20515;-74
2023/08/19 02:56:45;;;;;;;25.50;19.13;;;20.20;99.90;;;;;;5021954;28;20046;-73
2023/08/19 02:59:11;;;;;;;22.80;18.23;;;20.20;99.90;;;;;;5012565;28;20081;-73
2023/08/19 03:01:37;;;;;;;25.48;18.40;;;20.20;99.90;;;;;;4999605;28;20046;-73
2023/08/19 03:04:03;;;;;;;23.35;17.67;;;20.20;99.90;;;;;;4996532;28;20037;-74
2023/08/19 03:06:28;;;;;;;24.00;18.25;;;20.20;99.90;;;;;;4999013;28;20046;-74
2023/08/19 03:08:54;;;;;;;25.50;17.67;;;20.10;99.90;;;;;;4999463;28;20041;-74
2023/08/19 03:11:20;;;;;;;22.92;17.65;;;20.10;99.90;;;;;;4986331;28;20042;-73
2023/08/19 03:13:45;;;;;;;23.45;17.42;;;20.10;99.90;;;;;;4999695;28;20070;-74
2023/08/19 03:16:11;;;;;;;24.38;19.42;;;20.10;99.90;;;;;;4996872;28;20424;-74
2023/08/19 03:18:37;;;;;;;26.58;17.38;;;20.10;99.90;;;;;;4980834;28;20068;-73
2023/08/19 03:21:03;;;;;;;21.50;17.55;;;20.00;99.90;;;;;;4971014;28;20038;-74
2023/08/19 03:23:28;;;;;;;19.33;16.85;;;20.00;99.90;;;;;;4987763;28;20057;-73
2023/08/19 03:25:56;;;;;;;24.67;17.13;;;20.00;99.90;;;;;;5015527;28;20510;-73
2023/08/19 03:28:22;;;;;;;22.60;17.17;;;20.00;99.90;;;;;;5016224;28;20101;-73
2023/08/19 03:30:48;;;;;;;24.67;16.05;;;20.00;99.90;;;;;;4991446;28;20038;-73
2023/08/19 03:33:13;;;;;;;19.42;16.48;;;20.00;99.90;;;;;;5000411;28;20407;-74
2023/08/19 03:35:39;;;;;;;21.33;16.15;;;20.00;99.90;;;;;;5012426;28;20066;-73
2023/08/19 03:38:05;;;;;;;25.20;16.70;;;20.00;99.90;;;;;;4991464;28;20058;-73
2023/08/19 03:40:30;;;;;;;21.75;15.07;;;19.90;99.90;;;;;;4993903;28;20495;-73
2023/08/19 03:42:56;;;;;;;20.33;16.58;;;19.90;99.90;;;;;;5035590;28;20607;-73
2023/08/19 03:45:22;;;;;;;21.23;17.58;;;19.90;99.90;;;;;;5015729;28;20045;-73
2023/08/19 03:47:48;;;;;;;20.58;16.88;;;19.90;99.90;;;;;;5014156;28;20511;-74
2023/08/19 03:50:14;;;;;;;19.92;15.82;;;19.90;99.90;;;;;;4996627;28;20104;-73
2023/08/19 03:52:39;;;;;;;21.30;15.48;;;19.90;99.90;;;;;;5004759;28;20034;-74
2023/08/19 03:55:07;;;;;;;19.02;14.68;;;19.80;99.90;;;;;;5000649;28;20177;-73
2023/08/19 03:57:33;;;;;;;21.00;15.80;;;19.90;99.90;;;;;;5016229;28;20499;-74
2023/08/19 03:59:58;;;;;;;20.70;15.65;;;19.80;99.90;;;;;;5041276;28;20050;-73
2023/08/19 04:02:24;;;;;;;20.05;16.00;;;19.80;99.90;;;;;;4989120;28;20041;-73
2023/08/19 04:05:04;;;;;;;20.42;15.65;;;19.80;99.90;;;;;;5022415;28;20049;-73
2023/08/19 04:07:30;;;;;;;19.67;15.15;;;19.80;99.90;;;;;;5001682;28;20100;-73
2023/08/19 04:09:57;;;;;;;20.35;15.93;;;19.70;99.90;;;;;;4997880;28;20080;-73
2023/08/19 04:12:23;;;;;;;22.90;16.10;;;19.70;99.90;;;;;;5001646;28;20129;-73
2023/08/19 04:14:49;;;;;;;21.58;15.85;;;19.70;99.90;;;;;;5004542;28;20125;-73
2023/08/19 04:17:16;;;;;;;19.20;15.13;;;19.70;99.90;;;;;;5001718;28;20129;-73
2023/08/19 04:19:42;;;;;;;21.83;16.38;;;19.70;99.90;;;;;;5003425;28;20038;-73
2023/08/19 04:22:09;;;;;;;23.73;15.45;;;19.70;99.90;;;;;;5027023;28;20573;-73
2023/08/19 04:24:34;;;;;;;19.83;14.73;;;19.70;99.90;;;;;;5004481;28;20042;-73
2023/08/19 04:27:02;;;;;;;20.35;15.75;;;19.60;99.90;;;;;;5012323;28;20158;-73
2023/08/19 04:29:28;;;;;;;19.08;14.38;;;19.60;99.90;;;;;;4982395;28;20045;-73
2023/08/19 04:31:54;;;;;;;21.27;15.90;;;19.60;99.90;;;;;;5002965;28;20069;-73
2023/08/19 04:34:20;;;;;;;18.70;14.05;;;19.60;99.90;;;;;;4973512;28;20077;-72
2023/08/19 04:36:46;;;;;;;18.77;14.57;;;19.60;99.90;;;;;;4988539;28;20206;-73
2023/08/19 04:39:12;;;;;;;18.25;13.82;;;19.60;99.90;;;;;;5005525;28;20499;-73
2023/08/19 04:41:38;;;;;;;18.67;14.07;;;19.60;99.90;;;;;;5001824;28;20041;-73
2023/08/19 04:44:05;;;;;;;18.15;14.43;;;19.60;99.90;;;;;;4987751;28;20041;-73
2023/08/19 04:46:31;;;;;;;19.70;14.77;;;19.60;99.90;;;;;;5002678;28;20144;-72
2023/08/19 04:48:56;;;;;;;16.60;14.32;;;19.60;99.90;;;;;;4997096;28;20492;-72
2023/08/19 04:51:22;;;;;;;17.88;14.43;;;19.60;99.90;;;;;;4968202;28;20077;-73
2023/08/19 04:53:48;;;;;;;22.25;14.77;;;19.70;99.90;;;;;;4998994;28;20062;-73
2023/08/19 04:56:13;;;;;;;18.70;13.25;;;19.60;99.90;;;;;;4988901;28;20077;-72
2023/08/19 04:58:39;;;;;;;17.70;13.40;;;19.70;99.90;;;;;;4986205;28;20042;-72
2023/08/19 05:01:06;;;;;;;20.67;13.95;;;19.70;99.90;;;;;;5002731;28;20045;-72
2023/08/19 05:03:31;;;;;;;21.33;13.88;;;19.70;99.90;;;;;;5001889;28;20034;-72
2023/08/19 05:05:57;;;;;;;16.23;13.70;;;19.70;99.90;;;;;;5022247;28;20049;-72
2023/08/19 05:08:23;;;;;;;19.02;13.43;;;19.80;99.90;;;;;;5033727;28;20030;-72
2023/08/19 05:10:49;;;;;;;18.23;14.05;;;19.80;99.90;;;;;;4969224;28;20400;-72
2023/08/19 05:13:14;;;;;;;20.27;13.70;;;19.80;99.90;;;;;;5005812;28;20667;-72
2023/08/19 05:15:40;;;;;;;19.25;13.77;;;19.90;99.90;;;;;;5003665;28;20637;-72
2023/08/19 05:18:06;;;;;;;21.45;13.95;;;20.00;99.90;;;;;;5006813;28;20049;-72
2023/08/19 05:20:32;;;;;;;20.35;13.65;;;20.00;99.90;;;;;;4990384;28;20100;-72
2023/08/19 05:22:57;;;;;;;19.17;14.18;;;20.10;99.90;;;;;;5002793;28;20120;-72
2023/08/19 05:25:23;;;;;;;16.55;12.80;;;20.10;99.90;;;;;;4981258;28;20740;-72
2023/08/19 05:27:49;;;;;;;15.80;12.75;;;20.20;99.90;;;;;;4994761;28;20089;-72
2023/08/19 05:30:15;;;;;;;20.27;13.82;;;20.20;99.90;;;;;;4986226;28;20074;-72
2023/08/19 05:32:41;;;;;;;15.93;13.18;;;20.30;99.90;;;;;;5033940;28;20035;-72
2023/08/19 05:35:07;;;;;;;15.05;12.73;;;20.30;99.90;;;;;;5008759;28;20054;-72
2023/08/19 05:37:33;;;;;;;18.75;12.23;;;20.30;99.90;;;;;;5007123;28;20054;-72
2023/08/19 05:39:59;;;;;;;14.95;11.65;;;20.30;99.90;;;;;;4963573;28;20045;-72
2023/08/19 05:42:24;;;;;;;14.77;11.82;;;20.30;99.90;;;;;;5010565;28;20041;-71
2023/08/19 05:44:50;;;;;;;13.65;11.98;;;20.30;99.90;;;;;;5007489;28;20163;-72
2023/08/19 05:47:16;;;;;;;18.00;11.38;;;20.30;99.90;;;;;;5001908;28;20060;-72
2023/08/19 05:49:42;;;;;;;15.52;11.48;;;20.40;99.90;;;;;;5016945;28;20117;-72
2023/08/19 05:52:08;;;;;;;17.30;12.15;;;20.40;99.90;;;;;;4963235;28;20045;-72
2023/08/19 05:54:33;;;;;;;16.70;11.77;;;20.40;99.90;;;;;;5008573;28;20046;-72
2023/08/19 05:56:59;;;;;;;21.30;11.77;;;20.40;99.90;;;;;;5010756;28;20414;-72
2023/08/19 05:59:25;;;;;;;16.08;12.70;;;20.50;99.90;;;;;;4983032;28;20042;-71
2023/08/19 06:01:50;;;;;;;15.30;11.02;;;20.50;99.90;;;;;;5007999;28;20047;-72
2023/08/19 06:04:16;;;;;;;17.25;11.15;;;20.50;99.90;;;;;;4975828;28;20407;-72
2023/08/19 06:06:42;;;;;;;16.65;11.88;;;20.60;99.90;;;;;;5003329;28;20507;-72
2023/08/19 06:09:09;;;;;;;16.38;11.63;;;20.60;99.90;;;;;;5006776;28;20470;-72
2023/08/19 06:11:46;;;;;;;18.33;11.13;;;20.60;99.90;;;;;;4991003;28;20094;-72
2023/08/19 06:14:11;;;;;;;14.07;10.63;;;20.70;99.90;;;;;;5007430;28;20538;-72
2023/08/19 06:16:37;;;;;;;14.73;10.30;;;20.70;99.90;;;;;;5004358;28;20054;-71
2023/08/19 06:19:03;;;;;;;12.93;10.38;;;20.70;99.90;;;;;;5007559;28;20539;-72
2023/08/19 06:21:29;;;;;;;15.73;10.40;;;20.80;99.90;;;;;;5004184;28;20037;-72
2023/08/19 06:23:54;;;;;;;10.75;9.63;;;20.80;99.90;;;;;;4992134;28;20376;-72
2023/08/19 06:26:23;;;;;;;11.77;9.52;;;20.80;99.90;;;;;;4957991;28;20042;-72
2023/08/19 06:28:49;;;;;;;10.77;8.77;;;20.90;99.90;;;;;;5036959;28;20053;-72
2023/08/19 06:31:15;;;;;;;14.88;9.25;;;20.90;99.90;;;;;;5009017;28;20510;-72
2023/08/19 06:33:41;;;;;;;13.50;9.50;;;20.90;99.90;;;;;;5038210;28;20038;-72
2023/08/19 06:36:09;;;;;;;10.85;9.27;;;21.00;99.90;;;;;;4999440;28;20411;-72
2023/08/19 06:38:39;;;;;;;14.93;10.50;;;21.00;99.90;;;;;;5016472;28;20057;-72
2023/08/19 06:41:09;;;;;;;10.85;9.18;;;21.00;99.90;;;;;;5001994;28;20113;-72
2023/08/19 06:43:38;;;;;;;12.55;9.95;;;21.00;99.90;;;;;;4999406;28;20524;-72
2023/08/19 06:46:05;;;;;;;11.93;9.38;;;21.00;99.90;;;;;;5030982;28;20045;-72
2023/08/19 06:48:32;;;;;;;11.65;9.23;;;21.10;99.90;;;;;;5015095;28;20134;-72
2023/08/19 06:50:59;;;;;;;11.82;8.77;;;21.10;99.90;;;;;;4997390;28;20034;-72
2023/08/19 06:53:25;;;;;;;11.90;9.27;;;21.10;99.90;;;;;;5004504;28;20038;-72
2023/08/19 06:56:37;;;;;;;12.15;9.07;;;21.10;99.90;;;;;;5014641;28;20038;-72
2023/08/19 06:59:19;;;;;;;12.07;9.40;;;21.20;99.90;;;;;;4955165;28;20052;-72
2023/08/19 07:01:51;;;;;;;13.48;9.95;;;21.20;99.90;;;;;;4930766;28;20515;-72
2023/08/19 07:04:27;;;;;;;13.68;8.88;;;21.20;99.90;;;;;;4977158;28;20060;-72
2023/08/19 07:06:58;;;;;;;14.50;8.73;;;21.20;99.90;;;;;;4985781;28;20042;-72
2023/08/19 07:09:25;;;;;;;9.98;8.65;;;21.20;99.90;;;;;;4979417;28;20038;-72
2023/08/19 07:11:55;;;;;;;12.43;8.55;;;21.30;99.90;;;;;;4987643;28;20041;-72
2023/08/19 07:14:22;;;;;;;10.50;9.13;;;21.30;99.90;;;;;;5013946;28;20042;-72
2023/08/19 07:16:49;;;;;;;11.05;8.80;;;21.30;99.90;;;;;;4989576;28;20041;-71
2023/08/19 07:19:20;;;;;;;12.23;8.52;;;21.30;99.90;;;;;;5005604;28;20045;-72
2023/08/19 07:21:47;;;;;;;12.25;8.50;;;21.40;99.90;;;;;;5004271;28;20044;-72
2023/08/19 07:24:13;;;;;;;10.20;8.13;;;21.40;99.90;;;;;;5004530;28;20049;-72
2023/08/19 07:26:40;;;;;;;11.68;8.77;;;21.50;99.90;;;;;;5000456;28;20125;-72
2023/08/19 07:29:06;;;;;;;9.43;7.88;;;21.50;99.90;;;;;;4998733;28;20030;-72
2023/08/19 07:31:32;;;;;;;14.07;8.38;;;21.50;99.90;;;;;;5005819;28;20033;-72
2023/08/19 07:33:59;;;;;;;8.85;7.95;;;21.50;99.90;;;;;;5019492;28;20048;-72
2023/08/19 07:36:26;;;;;;;9.68;7.78;;;21.50;99.90;;;;;;5004053;28;20066;-72
2023/08/19 07:38:52;;;;;;;8.63;7.32;;;21.50;99.90;;;;;;5016519;28;20048;-72
2023/08/19 07:41:19;;;;;;;9.43;7.70;;;21.50;99.90;;;;;;4989528;28;20403;-72
2023/08/19 07:43:46;;;;;;;8.18;7.30;;;21.50;99.90;;;;;;4982283;28;20397;-72
2023/08/19 07:46:15;;;;;;;14.80;8.10;;;21.60;99.90;;;;;;5014682;28;20041;-72
2023/08/19 07:48:44;;;;;;;8.65;7.40;;;21.60;99.90;;;;;;4982185;28;20042;-72
2023/08/19 07:51:11;;;;;;;8.35;7.30;;;21.70;99.90;;;;;;5019446;28;20042;-75
2023/08/19 07:53:36;;;;;;;9.02;7.50;;;21.60;99.90;;;;;;5033592;28;20030;-74
2023/08/19 07:56:03;;;;;;;8.45;7.45;;;21.70;99.90;;;;;;4974573;28;20049;-73
2023/08/19 07:58:29;;;;;;;12.32;8.38;;;21.70;99.90;;;;;;5010568;28;20053;-73
2023/08/19 08:00:55;;;;;;;12.40;6.85;;;21.80;99.90;;;;;;5030716;28;20050;-74
2023/08/19 08:03:20;;;;;;;10.90;8.20;;;21.90;99.90;;;;;;5020002;28;20048;-73
2023/08/19 08:05:46;;;;;;;9.18;7.45;;;22.00;99.90;;;;;;5001067;28;20037;-73
2023/08/19 08:08:12;;;;;;;9.20;6.75;;;22.00;99.90;;;;;;5017301;28;20125;-74
2023/08/19 08:10:39;;;;;;;9.88;6.70;;;22.10;99.90;;;;;;4986013;28;20116;-74
2023/08/19 08:13:05;;;;;;;9.70;6.85;;;22.20;99.90;;;;;;5000978;28;20443;-74
2023/08/19 08:15:30;;;;;;;10.90;7.22;;;22.30;99.90;;;;;;5032792;28;20030;-73
2023/08/19 08:17:56;;;;;;;7.97;6.47;;;22.40;99.90;;;;;;4956813;28;20153;-74
2023/08/19 08:20:22;;;;;;;8.50;6.70;;;22.40;99.90;;;;;;5013110;28;20062;-74
2023/08/19 08:22:48;;;;;;;7.93;6.57;;;22.50;99.90;;;;;;5017424;28;20035;-74
2023/08/19 08:25:13;;;;;;;9.27;6.93;;;22.50;99.90;;;;;;5036722;28;20034;-74
2023/08/19 08:27:39;;;;;;;8.07;6.05;;;22.60;99.90;;;;;;4997711;28;20054;-74
2023/08/19 08:30:05;;;;;;;10.93;6.70;;;22.70;99.90;;;;;;4997824;28;20109;-74
2023/08/19 08:32:31;;;;;;;9.05;6.55;;;22.80;99.90;;;;;;5035901;28;20030;-74
2023/08/19 08:34:57;;;;;;;9.20;6.75;;;22.80;99.90;;;;;;4998563;28;20044;-75
2023/08/19 08:37:23;;;;;;;10.05;5.97;;;23.00;99.90;;;;;;4998192;28;20351;-70
2023/08/19 08:39:49;;;;;;;10.73;6.45;;;23.00;99.90;;;;;;4994927;28;20888;-70
2023/08/19 08:42:16;;;;;;;7.22;6.22;;;23.10;99.90;;;;;;5014760;28;20050;-74
2023/08/19 08:44:48;;;;;;;9.75;5.88;;;23.20;99.90;;;;;;4973718;28;20511;-75
2023/08/19 08:47:15;;;;;;;8.48;5.78;;;23.30;99.90;;;;;;4999258;28;20034;-75
2023/08/19 08:49:45;;;;;;;8.10;5.60;;;23.40;99.90;;;;;;5001196;28;20037;-75
2023/08/19 08:52:10;;;;;;;7.38;6.03;;;23.50;99.90;;;;;;5001497;28;20030;-75
2023/08/19 08:54:37;;;;;;;8.20;6.07;;;23.60;99.90;;;;;;5002582;28;20053;-76
2023/08/19 08:57:03;;;;;;;6.03;5.43;;;23.70;99.90;;;;;;5013979;28;20033;-75
2023/08/19 08:59:29;;;;;;;5.80;5.18;;;23.70;99.90;;;;;;5016081;28;20052;-75
2023/08/19 09:01:56;;;;;;;8.32;5.40;;;23.80;99.90;;;;;;5009247;28;20471;-75
2023/08/19 09:04:23;;;;;;;9.07;5.43;;;23.90;99.90;;;;;;4999583;28;20113;-76
2023/08/19 09:06:56;;;;;;;7.72;5.75;;;24.00;99.90;;;;;;4989226;28;20403;-76
2023/08/19 09:09:24;;;;;;;10.65;5.68;;;24.10;99.90;;;;;;5003863;28;20081;-77
2023/08/19 09:11:54;;;;;;;8.70;5.60;;;24.30;99.90;;;;;;5003363;28;20050;-76
2023/08/19 09:14:37;;;;;;;7.35;5.32;;;24.30;99.90;;;;;;5024016;28;20038;-77
2023/08/19 09:17:03;;;;;;;8.23;5.95;;;24.50;99.90;;;;;;5026944;28;20049;-77
2023/08/19 09:19:29;;;;;;;8.73;5.43;;;24.60;99.90;;;;;;5038470;28;20502;-77
2023/08/19 09:21:55;;;;;;;7.63;4.90;;;24.60;99.90;;;;;;5018595;28;20033;-74
2023/08/19 09:24:22;;;;;;;8.15;5.40;;;24.60;99.90;;;;;;5033183;28;20505;-75
2023/08/19 09:26:54;;;;;;;8.43;5.82;;;24.60;99.90;;;;;;4996176;28;20038;-75
2023/08/19 09:29:20;;;;;;;8.40;5.28;;;24.60;99.90;;;;;;5040288;28;20045;-76
2023/08/19 09:31:57;;;;;;;5.57;5.00;;;24.70;99.90;;;;;;5009417;28;20038;-81
2023/08/19 09:34:22;;;;;;;8.35;5.05;;;24.70;99.90;;;;;;4992402;28;20514;-83
2023/08/19 09:36:52;;;;;;;10.35;5.15;;;24.70;99.90;;;;;;5002305;28;20054;-83
2023/08/19 09:39:19;;;;;;;25.35;5.57;;;24.80;99.90;;;;;;4997412;28;20056;-77
2023/08/19 09:41:45;;;;;;;9.23;5.10;;;24.80;99.90;;;;;;4987218;28;20038;-75
2023/08/19 09:44:15;;;;;;;7.25;5.47;;;24.90;99.90;;;;;;4990477;28;20042;-72
2023/08/19 09:46:42;;;;;;;6.93;4.82;;;25.00;99.90;;;;;;5024243;28;20523;-71
2023/08/19 09:49:09;;;;;;;9.73;5.00;;;25.10;99.90;;;;;;4975256;28;20037;-73
2023/08/19 09:51:35;;;;;;;13.80;4.65;;;25.20;99.90;;;;;;5010906;28;20065;-75
2023/08/19 09:54:19;;;;;;;6.70;4.95;;;25.30;99.90;;;;;;4970954;28;20500;-73
2023/08/19 09:56:56;;;;;;;7.80;4.75;;;25.30;99.90;;;;;;5019599;28;20121;-75
2023/08/19 09:59:23;;;;;;;10.85;4.75;;;25.40;99.90;;;;;;5027522;28;20034;-74
2023/08/19 10:01:50;;;;;;;7.63;4.40;;;25.40;99.90;;;;;;4999311;28;20046;-75
2023/08/19 10:04:16;;;;;;;6.07;4.45;;;25.50;99.90;;;;;;5012894;28;20049;-75
2023/08/19 10:06:49;;;;;;;9.23;4.95;;;25.60;99.90;;;;;;5010134;28;20044;-76
2023/08/19 10:09:18;;;;;;;7.22;4.80;;;25.80;99.90;;;;;;5029905;28;20446;-76
2023/08/19 10:11:45;;;;;;;6.28;4.70;;;26.00;99.90;;;;;;5038259;28;20526;-76
2023/08/19 10:14:12;;;;;;;9.82;4.65;;;26.20;99.90;;;;;;5041033;28;20582;-76
2023/08/19 10:16:49;;;;;;;8.05;4.60;;;26.50;99.90;;;;;;5035386;28;20534;-76
2023/08/19 10:19:19;;;;;;;5.40;4.15;;;26.80;99.90;;;;;;5001139;28;20043;-73
2023/08/19 10:21:48;;;;;;;8.25;4.68;;;27.00;99.90;;;;;;5036417;28;20529;-82
2023/08/19 10:24:17;;;;;;;6.35;4.57;;;27.10;99.90;;;;;;4995084;28;20513;-76
2023/08/19 10:26:49;;;;;;;9.88;4.88;;;27.20;99.90;;;;;;5025637;28;20042;-76
2023/08/19 10:29:15;;;;;;;7.03;4.85;;;27.20;99.90;;;;;;5011154;28;20031;-79
2023/08/19 10:31:42;;;;;;;9.60;4.70;;;27.20;99.90;;;;;;5005554;28;20141;-78
2023/08/19 10:34:22;;;;;;;8.80;4.78;;;27.10;99.90;;;;;;4980618;28;20096;-77
2023/08/19 10:37:10;;;;;;;10.63;4.97;;;27.10;99.90;;;;;;4986997;28;20064;-76
2023/08/19 10:39:36;;;;;;;7.28;4.65;;;27.00;99.90;;;;;;5001935;28;20133;-76
2023/08/19 10:42:02;;;;;;;5.40;4.80;;;27.00;99.90;;;;;;4974642;28;20041;-75
2023/08/19 10:44:33;;;;;;;6.20;4.70;;;27.00;99.90;;;;;;5006026;28;20048;-77
2023/08/19 10:47:10;;;;;;;8.00;5.40;;;27.00;99.90;;;;;;5005047;28;20042;-76
2023/08/19 10:49:36;;;;;;;8.60;5.65;;;27.00;99.90;;;;;;4985604;28;20037;-76
2023/08/19 10:54:38;;;;;;;6.82;5.07;;;26.90;99.90;;;;;;4998497;28;20047;-74
2023/08/19 10:57:23;;;;;;;8.25;5.28;;;26.70;99.90;;;;;;5014084;28;20065;-76
2023/08/19 10:59:57;;;;;;;8.65;5.10;;;26.60;99.90;;;;;;4998549;28;20096;-79
2023/08/19 11:02:24;;;;;;;16.90;8.25;;;26.40;99.90;;;;;;5000406;28;20038;-74
2023/08/19 11:04:51;;;;;;;12.18;6.15;;;26.10;99.90;;;;;;5005526;28;20177;-78
2023/08/19 11:07:18;;;;;;;9.23;6.70;;;25.80;99.90;;;;;;5035660;28;20510;-79
2023/08/19 11:09:46;;;;;;;12.25;6.80;;;25.50;99.90;;;;;;5032149;28;20037;-78
2023/08/19 11:12:18;;;;;;;11.40;7.70;;;25.30;99.90;;;;;;5033150;28;20046;-78
2023/08/19 11:14:46;;;;;;;11.55;7.00;;;25.10;99.90;;;;;;4997948;28;20045;-77
2023/08/19 11:17:12;;;;;;;11.38;7.18;;;24.90;99.90;;;;;;4982559;28;20034;-77
2023/08/19 11:19:38;;;;;;;11.77;8.10;;;24.80;99.90;;;;;;5000845;28;20037;-79
2023/08/19 11:22:05;;;;;;;10.45;7.40;;;24.60;99.90;;;;;;5023084;28;20041;-80
2023/08/19 11:24:32;;;;;;;11.85;7.88;;;24.40;99.90;;;;;;5026685;28;20050;-79
2023/08/19 11:26:58;;;;;;;12.52;7.78;;;24.30;99.90;;;;;;5013900;28;20039;-79
2023/08/19 11:29:24;;;;;;;9.90;7.90;;;24.30;99.90;;;;;;5007946;28;20551;-80
2023/08/19 11:31:50;;;;;;;9.32;8.27;;;24.20;99.90;;;;;;5003913;28;20034;-80
2023/08/19 11:34:15;;;;;;;10.38;8.82;;;24.20;99.90;;;;;;5006625;28;20105;-79
2023/08/19 11:36:44;;;;;;;13.80;9.40;;;24.10;99.90;;;;;;4998407;28;20065;-80
2023/08/19 11:39:09;;;;;;;13.88;9.88;;;24.20;99.90;;;;;;4994667;28;20546;-79
2023/08/19 11:41:35;;;;;;;15.25;9.70;;;24.20;99.90;;;;;;4998128;28;20083;-80
2023/08/19 11:44:03;;;;;;;15.20;10.30;;;24.30;99.90;;;;;;5015529;28;20488;-80
2023/08/19 11:46:33;;;;;;;12.60;9.52;;;24.30;99.90;;;;;;4997191;28;20058;-79
2023/08/19 11:49:10;;;;;;;13.82;10.25;;;24.40;99.90;;;;;;5026378;28;20034;-80
2023/08/19 11:51:38;;;;;;;12.45;9.73;;;24.50;99.90;;;;;;5001974;28;20030;-81
2023/08/19 11:54:06;;;;;;;19.00;11.25;;;24.60;99.90;;;;;;5026308;28;20033;-80
2023/08/19 11:56:52;;;;;;;11.10;9.48;;;24.60;99.90;;;;;;5008601;28;20045;-81
2023/08/19 11:59:26;;;;;;;13.00;10.27;;;24.70;99.90;;;;;;4991353;28;20038;-80
2023/08/19 12:01:52;;;;;;;16.00;10.98;;;24.70;99.90;;;;;;5019493;28;20046;-81
2023/08/19 12:04:18;;;;;;;13.68;10.27;;;24.80;99.90;;;;;;5013955;28;20133;-80
2023/08/19 12:06:46;;;;;;;15.10;10.70;;;24.90;99.90;;;;;;5008175;28;20810;-79
2023/08/19 12:09:12;;;;;;;12.15;9.70;;;25.00;99.90;;;;;;5002918;28;20049;-80
2023/08/19 12:11:39;;;;;;;15.63;11.18;;;25.20;99.90;;;;;;5009588;28;20034;-78
2023/08/19 12:14:05;;;;;;;11.90;10.48;;;25.40;99.90;;;;;;5023967;28;20057;-79
2023/08/19 12:16:31;;;;;;;13.98;10.82;;;25.70;99.90;;;;;;5030547;28;20050;-78
2023/08/19 12:18:57;;;;;;;14.35;10.68;;;26.10;99.90;;;;;;5014136;28;20046;-78
2023/08/19 12:21:24;;;;;;;12.50;11.07;;;26.30;99.90;;;;;;4976470;28;20092;-78
2023/08/19 12:23:50;;;;;;;16.75;12.32;;;26.50;99.90;;;;;;4989877;28;20042;-77
2023/08/19 12:26:16;;;;;;;14.52;11.07;;;26.50;99.90;;;;;;5011609;28;20196;-78
2023/08/19 12:28:43;;;;;;;15.30;11.63;;;26.50;99.90;;;;;;5039014;28;20479;-78
2023/08/19 12:31:09;;;;;;;14.25;11.75;;;26.50;99.90;;;;;;5002504;28;20042;-78
2023/08/19 12:33:35;;;;;;;15.38;13.07;;;26.50;99.90;;;;;;5000061;28;20046;-78
2023/08/19 12:36:01;;;;;;;15.02;10.73;;;26.40;99.90;;;;;;5013066;28;20045;-78
2023/08/19 12:38:27;;;;;;;15.65;12.23;;;26.40;99.90;;;;;;5028674;28;20042;-78